sensor_id;sensor_type;location;lat;lon;timestamp;temperature;humidity
30290;DHT22;17105;55.652;37.710;2023-03-01T05:37:18;0.10;61.50
30290;DHT22;17105;55.652;37.710;2023-03-01T05:37:52;0.20;61.90
30290;DHT22;17105;55.652;37.710;2023-03-01T05:38:29;0.30;61.80
30290;DHT22;17105;55.652;37.710;2023-03-01T05:39:03;0.30;61.80
30290;DHT22;17105;55.652;37.710;2023-03-01T05:39:39;0.40;61.50
30290;DHT22;17105;55.652;37.710;2023-03-01T05:40:15;0.40;61.30
30290;DHT22;17105;55.652;37.710;2023-03-01T05:40:50;0.50;61.10
30290;DHT22;17105;55.652;37.710;2023-03-01T05:41:25;0.50;61.00
30290;DHT22;17105;55.652;37.710;2023-03-01T05:42:01;0.60;60.80
30290;DHT22;17105;55.652;37.710;2023-03-01T05:42:35;0.60;60.40
30290;DHT22;17105;55.652;37.710;2023-03-01T05:43:11;0.60;60.20
30290;DHT22;17105;55.652;37.710;2023-03-01T05:43:47;0.70;59.80
30290;DHT22;17105;55.652;37.710;2023-03-01T05:44:22;0.60;59.70
30290;DHT22;17105;55.652;37.710;2023-03-01T05:44:55;0.70;59.70
30290;DHT22;17105;55.652;37.710;2023-03-01T05:45:30;0.70;59.70
30290;DHT22;17105;55.652;37.710;2023-03-01T05:46:06;0.70;59.50
30290;DHT22;17105;55.652;37.710;2023-03-01T05:46:42;0.70;59.30
30290;DHT22;17105;55.652;37.710;2023-03-01T05:47:19;0.70;59.20
30290;DHT22;17105;55.652;37.710;2023-03-01T05:47:54;0.70;59.10
30290;DHT22;17105;55.652;37.710;2023-03-01T05:48:30;0.60;59.20
30290;DHT22;17105;55.652;37.710;2023-03-01T05:49:03;0.70;58.90
30290;DHT22;17105;55.652;37.710;2023-03-01T05:49:38;0.70;58.90
30290;DHT22;17105;55.652;37.710;2023-03-01T05:50:14;0.60;59.00
30290;DHT22;17105;55.652;37.710;2023-03-01T05:50:51;0.70;59.20
30290;DHT22;17105;55.652;37.710;2023-03-01T05:51:28;0.70;59.40
30290;DHT22;17105;55.652;37.710;2023-03-01T05:52:01;0.70;59.30
30290;DHT22;17105;55.652;37.710;2023-03-01T05:52:35;0.70;59.00
30290;DHT22;17105;55.652;37.710;2023-03-01T05:53:11;0.80;59.00
30290;DHT22;17105;55.652;37.710;2023-03-01T05:53:46;0.80;58.90
30290;DHT22;17105;55.652;37.710;2023-03-01T05:54:22;0.80;58.90
30290;DHT22;17105;55.652;37.710;2023-03-01T05:54:57;0.80;59.00
30290;DHT22;17105;55.652;37.710;2023-03-01T05:55:32;0.70;58.90
30290;DHT22;17105;55.652;37.710;2023-03-01T05:56:08;0.80;58.90
30290;DHT22;17105;55.652;37.710;2023-03-01T05:56:42;0.70;58.80
30290;DHT22;17105;55.652;37.710;2023-03-01T05:57:17;0.70;58.80
30290;DHT22;17105;55.652;37.710;2023-03-01T05:57:52;0.70;58.70
30290;DHT22;17105;55.652;37.710;2023-03-01T05:58:26;0.70;58.70
30290;DHT22;17105;55.652;37.710;2023-03-01T05:59:01;0.70;58.60
30290;DHT22;17105;55.652;37.710;2023-03-01T05:59:35;0.60;58.60
30290;DHT22;17105;55.652;37.710;2023-03-01T06:00:11;0.60;58.60
30290;DHT22;17105;55.652;37.710;2023-03-01T06:00:48;0.60;58.70
30290;DHT22;17105;55.652;37.710;2023-03-01T06:01:25;0.50;58.60
30290;DHT22;17105;55.652;37.710;2023-03-01T06:02:02;0.50;58.80
30290;DHT22;17105;55.652;37.710;2023-03-01T06:02:36;0.50;58.70
30290;DHT22;17105;55.652;37.710;2023-03-01T06:03:11;0.50;58.80
30290;DHT22;17105;55.652;37.710;2023-03-01T06:03:48;0.40;58.90
30290;DHT22;17105;55.652;37.710;2023-03-01T06:04:22;0.40;59.30
30290;DHT22;17105;55.652;37.710;2023-03-01T06:04:57;0.40;58.80
30290;DHT22;17105;55.652;37.710;2023-03-01T06:05:32;0.40;58.90
30290;DHT22;17105;55.652;37.710;2023-03-01T06:06:07;0.40;59.00
30290;DHT22;17105;55.652;37.710;2023-03-01T06:06:41;0.40;59.10
30290;DHT22;17105;55.652;37.710;2023-03-01T06:07:15;0.40;59.10
30290;DHT22;17105;55.652;37.710;2023-03-01T06:07:50;0.40;59.00
30290;DHT22;17105;55.652;37.710;2023-03-01T06:08:24;0.40;59.20
30290;DHT22;17105;55.652;37.710;2023-03-01T06:09:00;0.40;59.20
30290;DHT22;17105;55.652;37.710;2023-03-01T06:09:35;0.40;59.40
30290;DHT22;17105;55.652;37.710;2023-03-01T06:10:10;0.40;59.50
30290;DHT22;17105;55.652;37.710;2023-03-01T06:10:46;0.40;59.60
30290;DHT22;17105;55.652;37.710;2023-03-01T06:11:21;0.40;59.70
30290;DHT22;17105;55.652;37.710;2023-03-01T06:11:56;0.40;59.60
30290;DHT22;17105;55.652;37.710;2023-03-01T06:12:31;0.40;59.50
30290;DHT22;17105;55.652;37.710;2023-03-01T06:13:05;0.40;59.50
30290;DHT22;17105;55.652;37.710;2023-03-01T06:13:38;0.40;59.50
30290;DHT22;17105;55.652;37.710;2023-03-01T06:14:13;0.40;59.40
30290;DHT22;17105;55.652;37.710;2023-03-01T06:14:48;0.40;59.20
30290;DHT22;17105;55.652;37.710;2023-03-01T06:15:22;0.40;59.30
30290;DHT22;17105;55.652;37.710;2023-03-01T06:15:57;0.40;59.40
30290;DHT22;17105;55.652;37.710;2023-03-01T06:16:30;0.50;59.40
30290;DHT22;17105;55.652;37.710;2023-03-01T06:17:07;0.50;59.40
30290;DHT22;17105;55.652;37.710;2023-03-01T06:17:44;0.50;59.30
30290;DHT22;17105;55.652;37.710;2023-03-01T06:18:18;0.50;59.20
30290;DHT22;17105;55.652;37.710;2023-03-01T06:18:52;0.50;59.20
30290;DHT22;17105;55.652;37.710;2023-03-01T06:19:26;0.50;59.30
30290;DHT22;17105;55.652;37.710;2023-03-01T06:20:01;0.50;59.40
30290;DHT22;17105;55.652;37.710;2023-03-01T06:20:37;0.60;59.60
30290;DHT22;17105;55.652;37.710;2023-03-01T06:21:10;0.60;59.70
30290;DHT22;17105;55.652;37.710;2023-03-01T06:21:45;0.70;59.80
30290;DHT22;17105;55.652;37.710;2023-03-01T06:22:21;0.70;59.70
30290;DHT22;17105;55.652;37.710;2023-03-01T06:22:56;0.70;59.50
30290;DHT22;17105;55.652;37.710;2023-03-01T06:23:29;0.70;59.40
30290;DHT22;17105;55.652;37.710;2023-03-01T06:24:06;0.80;59.50
30290;DHT22;17105;55.652;37.710;2023-03-01T06:24:43;0.70;59.60
30290;DHT22;17105;55.652;37.710;2023-03-01T06:25:19;0.80;59.50
30290;DHT22;17105;55.652;37.710;2023-03-01T06:25:55;0.80;59.40
30290;DHT22;17105;55.652;37.710;2023-03-01T06:26:28;0.80;59.20
30290;DHT22;17105;55.652;37.710;2023-03-01T06:27:04;0.80;59.20
30290;DHT22;17105;55.652;37.710;2023-03-01T06:27:38;0.80;59.20
30290;DHT22;17105;55.652;37.710;2023-03-01T06:28:12;0.90;59.20
30290;DHT22;17105;55.652;37.710;2023-03-01T06:28:48;0.90;59.10
30290;DHT22;17105;55.652;37.710;2023-03-01T06:29:22;0.90;58.90
30290;DHT22;17105;55.652;37.710;2023-03-01T06:29:56;0.90;59.10
30290;DHT22;17105;55.652;37.710;2023-03-01T06:30:30;1.00;59.10
30290;DHT22;17105;55.652;37.710;2023-03-01T06:31:05;1.00;59.10
30290;DHT22;17105;55.652;37.710;2023-03-01T06:31:41;1.00;58.90
30290;DHT22;17105;55.652;37.710;2023-03-01T06:32:17;1.10;59.00
30290;DHT22;17105;55.652;37.710;2023-03-01T06:32:51;1.10;59.00
30290;DHT22;17105;55.652;37.710;2023-03-01T06:33:26;1.10;59.20
30290;DHT22;17105;55.652;37.710;2023-03-01T06:34:01;1.20;59.00
30290;DHT22;17105;55.652;37.710;2023-03-01T06:34:36;1.20;58.80
30290;DHT22;17105;55.652;37.710;2023-03-01T06:35:12;1.30;58.70
30290;DHT22;17105;55.652;37.710;2023-03-01T06:35:46;1.30;58.60
30290;DHT22;17105;55.652;37.710;2023-03-01T06:36:20;1.30;58.70
30290;DHT22;17105;55.652;37.710;2023-03-01T06:36:56;1.40;58.70
30290;DHT22;17105;55.652;37.710;2023-03-01T06:37:30;1.40;58.90
30290;DHT22;17105;55.652;37.710;2023-03-01T06:38:05;1.50;58.10
30290;DHT22;17105;55.652;37.710;2023-03-01T06:38:41;1.50;57.90
30290;DHT22;17105;55.652;37.710;2023-03-01T06:39:16;1.60;58.00
30290;DHT22;17105;55.652;37.710;2023-03-01T06:39:50;1.70;58.00
30290;DHT22;17105;55.652;37.710;2023-03-01T06:40:25;1.80;58.30
30290;DHT22;17105;55.652;37.710;2023-03-01T06:41:01;2.00;58.70
30290;DHT22;17105;55.652;37.710;2023-03-01T06:41:35;2.20;59.00
30290;DHT22;17105;55.652;37.710;2023-03-01T06:42:10;2.40;58.80
30290;DHT22;17105;55.652;37.710;2023-03-01T06:42:48;2.60;58.10
30290;DHT22;17105;55.652;37.710;2023-03-01T06:43:23;2.70;57.40
30290;DHT22;17105;55.652;37.710;2023-03-01T06:43:58;2.90;57.20
30290;DHT22;17105;55.652;37.710;2023-03-01T06:44:32;3.10;56.70
30290;DHT22;17105;55.652;37.710;2023-03-01T06:45:10;3.20;55.90
30290;DHT22;17105;55.652;37.710;2023-03-01T06:45:45;3.30;55.20
30290;DHT22;17105;55.652;37.710;2023-03-01T06:46:21;3.40;54.70
30290;DHT22;17105;55.652;37.710;2023-03-01T06:46:55;3.40;54.30
30290;DHT22;17105;55.652;37.710;2023-03-01T06:47:32;3.40;54.20
30290;DHT22;17105;55.652;37.710;2023-03-01T06:48:08;3.50;54.00
30290;DHT22;17105;55.652;37.710;2023-03-01T06:48:43;3.50;53.90
30290;DHT22;17105;55.652;37.710;2023-03-01T06:49:16;3.50;54.00
30290;DHT22;17105;55.652;37.710;2023-03-01T06:49:51;3.50;54.00
30290;DHT22;17105;55.652;37.710;2023-03-01T06:50:27;3.50;54.00
30290;DHT22;17105;55.652;37.710;2023-03-01T07:47:32;15.20;34.50
30290;DHT22;17105;55.652;37.710;2023-03-01T07:48:08;15.20;34.70
30290;DHT22;17105;55.652;37.710;2023-03-01T07:48:44;15.40;34.10
30290;DHT22;17105;55.652;37.710;2023-03-01T07:49:19;15.50;33.80
30290;DHT22;17105;55.652;37.710;2023-03-01T07:49:56;15.70;33.30
30290;DHT22;17105;55.652;37.710;2023-03-01T07:50:31;15.70;33.10
30290;DHT22;17105;55.652;37.710;2023-03-01T07:51:10;15.80;32.60
30290;DHT22;17105;55.652;37.710;2023-03-01T07:52:10;15.80;32.40
30290;DHT22;17105;55.652;37.710;2023-03-01T07:52:49;15.90;32.60
30290;DHT22;17105;55.652;37.710;2023-03-01T07:54:16;15.90;31.70
30290;DHT22;17105;55.652;37.710;2023-03-01T07:54:52;15.80;31.60
30290;DHT22;17105;55.652;37.710;2023-03-01T07:55:28;15.70;31.50
30290;DHT22;17105;55.652;37.710;2023-03-01T07:56:09;15.70;31.70
30290;DHT22;17105;55.652;37.710;2023-03-01T07:56:44;15.60;31.70
30290;DHT22;17105;55.652;37.710;2023-03-01T07:57:27;15.60;31.70
30290;DHT22;17105;55.652;37.710;2023-03-01T07:58:04;15.40;31.50
30290;DHT22;17105;55.652;37.710;2023-03-01T07:58:40;15.30;31.30
30290;DHT22;17105;55.652;37.710;2023-03-01T07:59:18;15.10;31.60
30290;DHT22;17105;55.652;37.710;2023-03-01T07:59:53;14.90;32.20
30290;DHT22;17105;55.652;37.710;2023-03-01T08:00:28;14.70;32.60
30290;DHT22;17105;55.652;37.710;2023-03-01T08:01:02;14.60;32.40
30290;DHT22;17105;55.652;37.710;2023-03-01T08:01:37;14.60;32.40
30290;DHT22;17105;55.652;37.710;2023-03-01T08:02:11;14.50;32.40
30290;DHT22;17105;55.652;37.710;2023-03-01T08:02:48;14.40;32.40
30290;DHT22;17105;55.652;37.710;2023-03-01T08:03:22;14.20;32.30
30290;DHT22;17105;55.652;37.710;2023-03-01T08:04:00;14.00;32.30
30290;DHT22;17105;55.652;37.710;2023-03-01T08:04:34;13.80;32.60
30290;DHT22;17105;55.652;37.710;2023-03-01T08:05:12;13.60;32.50
30290;DHT22;17105;55.652;37.710;2023-03-01T08:05:47;13.30;32.80
30290;DHT22;17105;55.652;37.710;2023-03-01T08:06:22;13.10;32.80
30290;DHT22;17105;55.652;37.710;2023-03-01T08:07:14;12.80;32.90
30290;DHT22;17105;55.652;37.710;2023-03-01T08:07:49;12.40;33.20
30290;DHT22;17105;55.652;37.710;2023-03-01T08:08:22;12.10;33.80
30290;DHT22;17105;55.652;37.710;2023-03-01T08:08:59;12.00;34.30
30290;DHT22;17105;55.652;37.710;2023-03-01T08:09:34;11.70;34.60
30290;DHT22;17105;55.652;37.710;2023-03-01T08:10:10;11.60;34.90
30290;DHT22;17105;55.652;37.710;2023-03-01T08:10:44;11.50;35.30
30290;DHT22;17105;55.652;37.710;2023-03-01T08:11:18;11.40;35.70
30290;DHT22;17105;55.652;37.710;2023-03-01T08:11:53;11.30;35.60
30290;DHT22;17105;55.652;37.710;2023-03-01T08:12:28;11.30;35.90
30290;DHT22;17105;55.652;37.710;2023-03-01T08:13:01;11.30;36.00
30290;DHT22;17105;55.652;37.710;2023-03-01T08:13:36;11.20;35.50
30290;DHT22;17105;55.652;37.710;2023-03-01T08:14:09;11.10;35.60
30290;DHT22;17105;55.652;37.710;2023-03-01T08:14:46;11.00;35.70
30290;DHT22;17105;55.652;37.710;2023-03-01T08:15:19;10.90;35.90
30290;DHT22;17105;55.652;37.710;2023-03-01T08:15:53;10.80;35.90
30290;DHT22;17105;55.652;37.710;2023-03-01T08:16:28;10.70;36.30
30290;DHT22;17105;55.652;37.710;2023-03-01T08:17:03;10.60;36.70
30290;DHT22;17105;55.652;37.710;2023-03-01T08:17:38;10.60;37.10
30290;DHT22;17105;55.652;37.710;2023-03-01T08:18:12;10.50;37.00
30290;DHT22;17105;55.652;37.710;2023-03-01T08:18:47;10.40;37.20
30290;DHT22;17105;55.652;37.710;2023-03-01T08:19:22;10.40;37.10
30290;DHT22;17105;55.652;37.710;2023-03-01T08:19:57;10.40;37.30
30290;DHT22;17105;55.652;37.710;2023-03-01T08:20:31;10.30;37.50
30290;DHT22;17105;55.652;37.710;2023-03-01T08:21:08;10.30;37.70
30290;DHT22;17105;55.652;37.710;2023-03-01T08:21:43;10.20;37.90
30290;DHT22;17105;55.652;37.710;2023-03-01T08:22:18;10.30;37.50
30290;DHT22;17105;55.652;37.710;2023-03-01T08:22:55;10.20;37.50
30290;DHT22;17105;55.652;37.710;2023-03-01T08:23:28;10.20;37.40
30290;DHT22;17105;55.652;37.710;2023-03-01T08:24:04;10.10;37.30
30290;DHT22;17105;55.652;37.710;2023-03-01T08:24:38;10.00;37.30
30290;DHT22;17105;55.652;37.710;2023-03-01T08:25:13;10.00;37.30
30290;DHT22;17105;55.652;37.710;2023-03-01T08:25:48;9.90;37.30
30290;DHT22;17105;55.652;37.710;2023-03-01T08:26:23;9.80;37.40
30290;DHT22;17105;55.652;37.710;2023-03-01T08:26:58;9.80;37.70
30290;DHT22;17105;55.652;37.710;2023-03-01T08:27:36;9.80;37.90
30290;DHT22;17105;55.652;37.710;2023-03-01T08:28:10;9.80;38.20
30290;DHT22;17105;55.652;37.710;2023-03-01T08:28:45;9.80;38.60
30290;DHT22;17105;55.652;37.710;2023-03-01T08:29:20;9.90;39.10
30290;DHT22;17105;55.652;37.710;2023-03-01T08:29:54;10.10;39.10
30290;DHT22;17105;55.652;37.710;2023-03-01T08:30:27;10.20;38.70
30290;DHT22;17105;55.652;37.710;2023-03-01T08:31:12;10.30;38.50
30290;DHT22;17105;55.652;37.710;2023-03-01T08:31:48;10.40;38.50
30290;DHT22;17105;55.652;37.710;2023-03-01T08:32:24;10.50;38.30
30290;DHT22;17105;55.652;37.710;2023-03-01T08:33:00;10.60;38.00
30290;DHT22;17105;55.652;37.710;2023-03-01T08:33:34;10.80;37.50
30290;DHT22;17105;55.652;37.710;2023-03-01T08:34:11;10.90;37.10
30290;DHT22;17105;55.652;37.710;2023-03-01T08:34:47;11.00;37.00
30290;DHT22;17105;55.652;37.710;2023-03-01T08:35:22;11.00;37.00
30290;DHT22;17105;55.652;37.710;2023-03-01T08:36:03;11.10;37.30
30290;DHT22;17105;55.652;37.710;2023-03-01T08:36:39;11.20;37.60
30290;DHT22;17105;55.652;37.710;2023-03-01T08:37:14;11.40;37.60
30290;DHT22;17105;55.652;37.710;2023-03-01T08:37:49;11.50;37.10
30290;DHT22;17105;55.652;37.710;2023-03-01T08:38:23;11.70;36.90
30290;DHT22;17105;55.652;37.710;2023-03-01T08:38:58;11.80;36.50
30290;DHT22;17105;55.652;37.710;2023-03-01T08:39:33;11.90;36.20
30290;DHT22;17105;55.652;37.710;2023-03-01T08:40:13;12.00;35.80
30290;DHT22;17105;55.652;37.710;2023-03-01T08:40:47;12.10;36.00
30290;DHT22;17105;55.652;37.710;2023-03-01T08:41:20;12.20;36.10
30290;DHT22;17105;55.652;37.710;2023-03-01T08:41:55;12.30;36.40
30290;DHT22;17105;55.652;37.710;2023-03-01T08:42:32;12.50;36.40
30290;DHT22;17105;55.652;37.710;2023-03-01T08:43:06;12.60;36.00
30290;DHT22;17105;55.652;37.710;2023-03-01T08:43:40;12.80;35.70
30290;DHT22;17105;55.652;37.710;2023-03-01T08:44:15;12.80;35.20
30290;DHT22;17105;55.652;37.710;2023-03-01T08:44:50;12.90;34.80
30290;DHT22;17105;55.652;37.710;2023-03-01T08:45:25;13.00;34.90
30290;DHT22;17105;55.652;37.710;2023-03-01T08:45:59;13.00;34.80
30290;DHT22;17105;55.652;37.710;2023-03-01T08:46:36;13.00;34.80
30290;DHT22;17105;55.652;37.710;2023-03-01T08:47:10;13.10;34.70
30290;DHT22;17105;55.652;37.710;2023-03-01T08:47:45;13.10;35.00
30290;DHT22;17105;55.652;37.710;2023-03-01T08:48:19;13.20;34.80
30290;DHT22;17105;55.652;37.710;2023-03-01T08:48:53;13.20;34.40
